Time;durP1;ratioP1;P1;durP2;ratioP2;P2;SDS_P1;SDS_P2;PMS_P1;PMS_P2;Temp;Humidity;BMP_temperature;BMP_pressure;BME280_temperature;BME280_humidity;BME280_pressure;Samples;Min_cycle;Max_cycle;Signal;HPM_P1;HPM_P2
2023/04/08 00:02:15;;;;;;;31.15;13.88;;;;;;;7.75;100.00;102186.06;4980054;28;20034;-96
2023/04/08 00:04:43;;;;;;;31.33;14.32;;;;;;;7.71;100.00;102192.78;4978437;28;20037;-96
2023/04/08 00:07:18;;;;;;;33.08;14.13;;;;;;;7.71;100.00;102195.38;4981438;28;20038;-96
2023/04/08 00:09:52;;;;;;;29.50;13.75;;;;;;;7.72;100.00;102183.28;4982389;28;20041;-96
2023/04/08 00:12:18;;;;;;;33.67;13.95;;;;;;;7.74;100.00;102186.88;4983501;28;20183;-96
2023/04/08 00:14:52;;;;;;;37.45;14.35;;;;;;;7.76;100.00;102185.25;4982957;28;20404;-96
2023/04/08 00:17:23;;;;;;;32.92;13.65;;;;;;;7.78;100.00;102187.13;4982165;28;20030;-96
2023/04/08 00:19:51;;;;;;;29.90;13.73;;;;;;;7.78;100.00;102189.72;4981753;28;20628;-96
2023/04/08 00:22:17;;;;;;;34.90;14.30;;;;;;;7.80;100.00;102188.09;4980060;28;20031;-96
2023/04/08 00:24:48;;;;;;;32.08;14.45;;;;;;;7.80;100.00;102189.81;4982056;28;20033;-96
2023/04/08 00:27:17;;;;;;;40.35;15.48;;;;;;;7.79;100.00;102196.72;4983420;28;20037;-96
2023/04/08 00:29:42;;;;;;;30.60;14.60;;;;;;;7.80;100.00;102182.03;4982212;28;20042;-96
2023/04/08 00:32:16;;;;;;;38.30;15.60;;;;;;;7.80;100.00;102188.09;4983815;28;20416;-96
2023/04/08 00:34:42;;;;;;;35.95;14.90;;;;;;;7.82;100.00;102189.09;4981860;28;20030;-96
2023/04/08 00:37:13;;;;;;;37.97;15.23;;;;;;;7.84;100.00;102192.66;4980183;28;20018;-96
2023/04/08 00:39:39;;;;;;;35.30;15.48;;;;;;;7.84;100.00;102184.88;4983949;28;20716;-96
2023/04/08 00:42:04;;;;;;;39.33;15.57;;;;;;;7.84;100.00;102186.59;4979506;28;20070;-96
2023/04/08 00:44:40;;;;;;;36.85;15.25;;;;;;;7.85;100.00;102191.00;4980799;28;20101;-96
2023/04/08 00:47:06;;;;;;;38.67;16.45;;;;;;;7.86;100.00;102191.88;4990059;28;20483;-96
2023/04/08 00:49:40;;;;;;;38.67;15.43;;;;;;;7.88;100.00;102195.44;4984614;28;20029;-96
2023/04/08 00:52:17;;;;;;;;;;;;;;;;;;;;;
2023/04/08 00:54:43;;;;;;;37.40;16.02;;;;;;;7.93;100.00;102199.19;5007119;28;20034;-96
2023/04/08 00:57:11;;;;;;;43.85;16.45;;;;;;;7.91;100.00;102191.31;4996889;28;20173;-96
2023/04/08 00:59:36;;;;;;;37.80;15.70;;;;;;;7.92;100.00;102197.41;4987937;28;20109;-96
2023/04/08 01:02:38;;;;;;;46.97;16.48;;;;;;;7.97;100.00;102198.56;4985469;28;20054;-96
2023/04/08 01:05:08;;;;;;;41.65;16.42;;;;;;;7.98;100.00;102200.31;4981324;28;20026;-96
2023/04/08 01:07:45;;;;;;;39.92;16.02;;;;;;;8.01;100.00;102197.94;4986719;28;20101;-96
2023/04/08 01:10:19;;;;;;;38.92;16.23;;;;;;;8.03;100.00;102205.81;4987993;28;20487;-96
2023/04/08 01:13:00;;;;;;;41.85;15.82;;;;;;;8.03;100.00;102209.28;4982542;28;20045;-96
2023/04/08 01:15:27;;;;;;;40.80;15.80;;;;;;;8.04;100.00;102202.38;4983964;28;20026;-96
2023/04/08 01:17:58;;;;;;;43.05;17.50;;;;;;;8.03;100.00;102201.50;4979382;28;20036;-96
2023/04/08 01:20:25;;;;;;;43.30;15.98;;;;;;;8.05;100.00;102205.06;4981373;28;20026;-96
2023/04/08 01:22:53;;;;;;;36.53;17.58;;;;;;;8.05;100.00;102201.56;4977097;28;20034;-96
2023/04/08 01:25:25;;;;;;;42.83;17.00;;;;;;;8.06;100.00;102205.97;4980701;28;20064;-96
2023/04/08 01:27:57;;;;;;;41.50;17.35;;;;;;;8.05;100.00;102202.47;4979387;28;20026;-96
2023/04/08 01:30:25;;;;;;;40.90;16.10;;;;;;;8.06;100.00;102201.66;4982557;28;20154;-96
2023/04/08 01:32:53;;;;;;;42.55;16.02;;;;;;;8.06;100.00;102212.03;4979697;28;20030;-96
2023/04/08 01:35:22;;;;;;;43.15;17.05;;;;;;;8.05;100.00;102210.25;4980885;28;20026;-96
2023/04/08 01:37:50;;;;;;;39.90;17.33;;;;;;;8.04;100.00;102211.06;4979292;28;20048;-96
2023/04/08 01:40:17;;;;;;;43.72;17.17;;;;;;;8.04;100.00;102211.06;4978087;28;20026;-96
2023/04/08 01:42:54;;;;;;;46.88;17.75;;;;;;;8.04;100.00;102208.47;4981248;28;20038;-96
2023/04/08 01:45:27;;;;;;;45.67;17.48;;;;;;;8.03;100.00;102209.28;4980477;28;20025;-96
2023/04/08 01:48:01;;;;;;;38.45;16.20;;;;;;;8.03;100.00;102217.06;4978302;28;20120;-96
2023/04/08 01:50:28;;;;;;;43.58;17.55;;;;;;;8.05;100.00;102215.44;4981433;28;20132;-96
2023/04/08 01:53:16;;;;;;;40.33;16.70;;;;;;;8.06;100.00;102221.53;4989019;28;20030;-96
2023/04/08 01:55:51;;;;;;;43.63;18.42;;;;;;;8.04;100.00;102211.06;4993531;28;20037;-96
2023/04/08 02:01:42;;;;;;;48.85;17.42;;;;;;;7.99;100.00;102209.91;4991376;23;20065;-67
2023/04/08 02:04:08;;;;;;;45.35;18.88;;;;;;;7.97;100.00;102211.53;4967136;28;20116;-66
2023/04/08 02:06:33;;;;;;;42.17;17.80;;;;;;;7.96;100.00;102221.00;4949491;28;20482;-66
2023/04/08 02:09:00;;;;;;;44.15;17.52;;;;;;;7.97;100.00;102217.63;4967097;28;20418;-66
2023/04/08 02:11:27;;;;;;;41.92;16.73;;;;;;;7.99;100.00;102215.09;4967347;28;20042;-66
2023/04/08 02:13:52;;;;;;;47.55;18.67;;;;;;;7.99;100.00;102218.63;4967847;28;20049;-67
2023/04/08 02:16:23;;;;;;;46.95;18.60;;;;;;;8.01;100.00;102224.78;4966730;28;20042;-66
2023/04/08 02:18:55;;;;;;;44.08;17.88;;;;;;;8.03;100.00;102224.84;4966031;28;20037;-66
2023/04/08 02:21:29;;;;;;;47.92;18.75;;;;;;;8.02;100.00;102217.88;4948416;28;20037;-67
2023/04/08 02:23:56;;;;;;;47.58;17.38;;;;;;;8.02;100.00;102220.47;4967885;28;20508;-66
2023/04/08 02:26:23;;;;;;;46.40;18.88;;;;;;;8.02;100.00;102223.06;4967271;28;20556;-66
2023/04/08 02:28:49;;;;;;;40.90;17.23;;;;;;;8.03;100.00;102227.44;4968129;28;20037;-66
2023/04/08 02:31:17;;;;;;;41.58;17.13;;;;;;;8.02;100.00;102225.66;4968287;28;20033;-66
2023/04/08 02:33:43;;;;;;;41.00;16.98;;;;;;;8.03;100.00;102230.03;4968165;28;20030;-67
2023/04/08 02:36:10;;;;;;;45.03;17.83;;;;;;;8.03;100.00;102224.84;4966058;28;20058;-66
2023/04/08 02:38:35;;;;;;;40.70;16.58;;;;;;;8.05;100.00;102222.34;4967331;28;20045;-66
2023/04/08 02:41:01;;;;;;;41.35;17.17;;;;;;;8.05;100.00;102225.81;4967717;28;20038;-66
2023/04/08 02:43:31;;;;;;;43.58;16.90;;;;;;;8.07;100.00;102231.13;4966919;28;20018;-67
2023/04/08 02:45:58;;;;;;;43.40;17.58;;;;;;;8.05;100.00;102238.81;4967197;28;20035;-66
2023/04/08 02:48:24;;;;;;;45.28;17.92;;;;;;;8.05;100.00;102236.22;4964525;28;20025;-66
2023/04/08 02:50:49;;;;;;;44.20;17.65;;;;;;;8.06;100.00;102230.22;4967925;28;20026;-67
2023/04/08 02:53:14;;;;;;;39.65;17.27;;;;;;;8.08;100.00;102239.00;4965981;28;20030;-66
2023/04/08 02:55:40;;;;;;;44.78;17.85;;;;;;;8.09;100.00;102234.69;4968038;28;20509;-66
2023/04/08 02:58:05;;;;;;;40.42;16.98;;;;;;;8.09;100.00;102238.16;4967358;28;20177;-67
2023/04/08 03:00:30;;;;;;;35.90;16.27;;;;;;;8.07;100.00;102239.81;4966341;28;20046;-66
2023/04/08 03:02:56;;;;;;;47.53;18.00;;;;;;;8.08;100.00;102241.59;4966505;28;20045;-66
2023/04/08 03:05:21;;;;;;;43.47;17.60;;;;;;;8.06;100.00;102238.00;4967315;28;20114;-66
2023/04/08 03:07:46;;;;;;;36.45;16.45;;;;;;;8.05;100.00;102235.31;4967823;28;20038;-66
2023/04/08 03:10:12;;;;;;;44.30;17.60;;;;;;;8.05;100.00;102241.41;4967034;28;20034;-66
2023/04/08 03:12:37;;;;;;;43.90;17.80;;;;;;;8.05;100.00;102236.22;4966107;28;20022;-67
2023/04/08 03:15:03;;;;;;;49.33;18.10;;;;;;;8.05;100.00;102241.41;4965376;28;20445;-66
2023/04/08 03:17:29;;;;;;;44.92;18.58;;;;;;;8.04;100.00;102237.03;4966488;28;20038;-66
2023/04/08 03:19:54;;;;;;;52.00;19.75;;;;;;;8.04;100.00;102233.53;4966396;28;20043;-67
2023/04/08 03:22:19;;;;;;;43.13;18.58;;;;;;;8.01;100.00;102232.56;4966276;28;20030;-66
2023/04/08 03:24:45;;;;;;;43.50;18.23;;;;;;;8.00;100.00;102237.66;4967804;28;20041;-66
2023/04/08 03:27:11;;;;;;;41.22;17.95;;;;;;;8.00;100.00;102241.16;4969198;28;20056;-66
2023/04/08 03:29:37;;;;;;;43.50;18.15;;;;;;;8.01;100.00;102231.69;4970254;28;20038;-66
2023/04/08 03:32:02;;;;;;;43.22;17.90;;;;;;;8.00;100.00;102232.47;4969045;28;20058;-66
2023/04/08 03:34:27;;;;;;;47.78;19.40;;;;;;;7.97;100.00;102240.09;4971073;28;20549;-66
2023/04/08 03:36:53;;;;;;;50.63;20.10;;;;;;;7.93;100.00;102232.94;4970621;28;20562;-66
2023/04/08 03:39:18;;;;;;;48.88;19.92;;;;;;;7.92;100.00;102241.50;4968429;28;20029;-66
2023/04/08 03:41:44;;;;;;;50.75;20.35;;;;;;;7.90;100.00;102244.03;4969797;28;20031;-67
2023/04/08 03:44:09;;;;;;;46.83;19.65;;;;;;;7.93;100.00;102243.31;4971314;28;20022;-67
2023/04/08 03:46:34;;;;;;;50.72;19.33;;;;;;;7.95;100.00;102244.28;4969864;28;20617;-66
2023/04/08 03:49:00;;;;;;;52.20;20.80;;;;;;;7.96;100.00;102246.06;4968967;28;20038;-66
2023/04/08 03:51:25;;;;;;;53.65;20.52;;;;;;;7.96;100.00;102240.88;4969110;28;20035;-67
2023/04/08 03:53:50;;;;;;;51.72;20.67;;;;;;;7.98;100.00;102249.63;4971095;28;20504;-66
2023/04/08 03:56:15;;;;;;;59.92;21.10;;;;;;;7.95;100.00;102247.78;4968916;28;20026;-66
2023/04/08 03:58:41;;;;;;;50.85;19.73;;;;;;;7.97;100.00;102250.47;4970995;28;20027;-66
2023/04/08 04:01:06;;;;;;;54.13;20.33;;;;;;;7.96;100.00;102248.69;4969335;28;20054;-67
2023/04/08 04:03:31;;;;;;;50.60;20.70;;;;;;;7.97;100.00;102247.88;4968872;28;20506;-66
2023/04/08 04:05:57;;;;;;;53.72;19.75;;;;;;;7.96;100.00;102251.28;4970951;28;20023;-66
2023/04/08 04:08:22;;;;;;;54.95;20.92;;;;;;;7.96;100.00;102249.56;4970464;28;20134;-66
2023/04/08 04:10:47;;;;;;;60.33;20.65;;;;;;;7.97;100.00;102253.06;4970470;28;21013;-66
2023/04/08 04:13:13;;;;;;;56.28;19.65;;;;;;;7.98;100.00;102253.16;4969213;28;20576;-66
2023/04/08 04:15:39;;;;;;;52.15;20.20;;;;;;;7.97;100.00;102253.06;4970557;28;20129;-66
2023/04/08 04:18:05;;;;;;;56.65;20.92;;;;;;;7.97;100.00;102251.34;4967646;28;20645;-66
2023/04/08 04:20:30;;;;;;;59.63;22.17;;;;;;;7.96;100.00;102248.69;4969117;28;20106;-66
2023/04/08 04:22:56;;;;;;;57.30;21.27;;;;;;;7.95;100.00;102262.44;4969002;28;20026;-66
2023/04/08 04:25:21;;;;;;;57.15;20.85;;;;;;;7.97;100.00;102268.66;4970207;28;20532;-67
2023/04/08 04:27:46;;;;;;;58.00;21.40;;;;;;;7.95;100.00;102271.16;4970373;28;20030;-66
2023/04/08 04:30:14;;;;;;;53.38;20.65;;;;;;;7.98;100.00;102270.41;4970154;28;20019;-66
2023/04/08 04:32:40;;;;;;;59.70;22.42;;;;;;;8.01;100.00;102273.22;4969268;28;20026;-66
2023/04/08 04:35:06;;;;;;;49.95;19.35;;;;;;;8.01;100.00;102275.81;4968114;28;20026;-66
2023/04/08 04:37:31;;;;;;;50.67;19.73;;;;;;;8.01;100.00;102278.41;4969393;28;20034;-66
2023/04/08 04:39:56;;;;;;;50.40;19.00;;;;;;;8.01;100.00;102275.81;4952312;28;20077;-66
2023/04/08 04:42:21;;;;;;;50.38;19.33;;;;;;;7.99;100.00;102286.09;4969059;28;20043;-66
2023/04/08 04:44:47;;;;;;;53.83;20.13;;;;;;;7.93;100.00;102285.72;4969417;28;20066;-66
2023/04/08 04:47:12;;;;;;;47.75;19.73;;;;;;;7.89;100.00;102286.34;5015248;23;20057;-66
2023/04/08 04:49:39;;;;;;;50.30;19.35;;;;;;;7.88;100.00;102281.06;5148532;23;20085;-66
2023/04/08 04:52:04;;;;;;;53.83;20.83;;;;;;;7.86;100.00;102300.88;5128132;23;20725;-66
2023/04/08 04:54:29;;;;;;;54.10;20.98;;;;;;;7.86;100.00;102293.06;5137526;23;20140;-66
2023/04/08 04:56:55;;;;;;;61.20;22.45;;;;;;;7.86;100.00;102290.47;5002963;28;20387;-66
2023/04/08 04:59:20;;;;;;;62.40;22.02;;;;;;;7.88;100.00;102299.22;5005614;28;20029;-66
2023/04/08 05:01:45;;;;;;;61.85;21.83;;;;;;;7.89;100.00;102298.44;5002841;28;20014;-66
2023/04/08 05:04:11;;;;;;;65.43;23.10;;;;;;;7.89;100.00;102296.72;5004412;28;20571;-66
2023/04/08 05:06:36;;;;;;;59.58;23.67;;;;;;;7.89;100.00;102304.50;5001667;28;20117;-66
2023/04/08 05:09:01;;;;;;;54.20;21.60;;;;;;;7.90;100.00;102302.84;5005090;28;20021;-66
2023/04/08 05:11:27;;;;;;;53.90;22.02;;;;;;;7.91;100.00;102302.91;5004080;28;20036;-67
2023/04/08 05:13:52;;;;;;;50.83;21.98;;;;;;;7.90;100.00;102305.44;5005818;28;20034;-66
2023/04/08 05:16:17;;;;;;;52.05;21.90;;;;;;;7.91;100.00;102304.63;5005595;28;20030;-66
2023/04/08 05:18:42;;;;;;;55.28;20.92;;;;;;;7.90;100.00;102308.03;5003318;28;20093;-66
2023/04/08 05:21:08;;;;;;;62.80;22.45;;;;;;;7.88;100.00;102318.31;4983566;28;20432;-66
2023/04/08 05:23:34;;;;;;;51.78;20.73;;;;;;;7.88;100.00;102314.81;5004523;28;20021;-66
2023/04/08 05:26:00;;;;;;;54.25;21.75;;;;;;;7.86;100.00;102321.63;4983695;28;20401;-66
2023/04/08 05:28:26;;;;;;;52.50;21.10;;;;;;;7.83;100.00;102319.72;5002554;28;20018;-66
2023/04/08 05:30:52;;;;;;;56.53;22.20;;;;;;;7.78;100.00;102323.78;5003288;28;20034;-66
2023/04/08 05:33:18;;;;;;;63.58;23.13;;;;;;;7.72;100.00;102316.53;4997544;28;20034;-66
2023/04/08 05:35:43;;;;;;;64.00;24.85;;;;;;;7.69;100.00;102318.03;5002578;28;20029;-66
2023/04/08 05:38:09;;;;;;;66.55;26.13;;;;;;;7.66;100.00;102321.31;4986129;28;20030;-66
2023/04/08 05:40:34;;;;;;;64.93;24.80;;;;;;;7.62;100.00;102319.38;5006194;28;20033;-66
2023/04/08 05:43:00;;;;;;;63.47;25.33;;;;;;;7.56;100.00;102326.78;5002150;28;20026;-66
2023/04/08 05:45:26;;;;;;;62.60;24.67;;;;;;;7.55;100.00;102325.00;4983821;28;20037;-66
2023/04/08 05:47:52;;;;;;;68.32;25.52;;;;;;;7.55;100.00;102330.19;5002747;28;20489;-66
2023/04/08 05:50:17;;;;;;;68.85;24.92;;;;;;;7.52;100.00;102330.91;5005474;28;20041;-66
2023/04/08 05:52:46;;;;;;;68.65;25.73;;;;;;;7.51;100.00;102331.69;5002458;28;20138;-66
2023/04/08 05:55:12;;;;;;;69.63;25.02;;;;;;;7.48;100.00;102334.09;4996179;28;20046;-66
2023/04/08 05:57:37;;;;;;;69.20;25.92;;;;;;;7.48;100.00;102327.22;4992172;28;20501;-67
2023/04/08 06:00:07;;;;;;;71.50;26.60;;;;;;;7.48;100.00;102339.28;4994461;28;20042;-66
2023/04/08 06:02:33;;;;;;;63.00;24.33;;;;;;;7.51;100.00;102343.78;4992581;28;20041;-66
2023/04/08 06:04:59;;;;;;;62.85;24.98;;;;;;;7.55;100.00;102340.56;4994994;28;20030;-66
2023/04/08 06:07:24;;;;;;;63.45;24.27;;;;;;;7.59;100.00;102342.50;4994063;28;20416;-66
2023/04/08 06:09:49;;;;;;;59.92;24.52;;;;;;;7.63;100.00;102339.31;4995747;28;20382;-66
2023/04/08 06:12:15;;;;;;;65.55;24.77;;;;;;;7.65;100.00;102348.09;4992859;28;20021;-66
2023/04/08 06:14:40;;;;;;;59.92;23.98;;;;;;;7.68;100.00;102345.69;4988461;28;20410;-67
2023/04/08 06:17:05;;;;;;;64.65;24.33;;;;;;;7.72;100.00;102352.84;4994332;28;20026;-66
2023/04/08 06:19:31;;;;;;;70.95;26.30;;;;;;;7.76;100.00;102351.31;4994460;28;20073;-67
2023/04/08 06:21:57;;;;;;;63.28;23.80;;;;;;;7.79;100.00;102349.81;4995117;28;20089;-66
2023/04/08 06:24:25;;;;;;;59.92;23.73;;;;;;;7.82;100.00;102357.78;4995492;28;20030;-66
2023/04/08 06:26:51;;;;;;;65.18;24.70;;;;;;;7.83;100.00;102359.56;4994752;28;20083;-66
2023/04/08 06:29:16;;;;;;;56.65;24.33;;;;;;;7.86;100.00;102363.16;4995262;28;20044;-66
2023/04/08 06:31:41;;;;;;;59.53;23.75;;;;;;;7.88;100.00;102365.03;4994360;28;20030;-66
2023/04/08 06:34:07;;;;;;;51.50;21.85;;;;;;;7.90;100.00;102373.78;4995742;28;20536;-66
2023/04/08 06:36:32;;;;;;;55.92;21.60;;;;;;;7.94;100.00;102377.47;4994739;28;20093;-67
2023/04/08 06:38:57;;;;;;;53.92;23.15;;;;;;;7.98;100.00;102382.00;4977625;28;20497;-66
2023/04/08 06:41:23;;;;;;;56.80;22.20;;;;;;;8.01;100.00;102384.81;4994367;28;20034;-66
2023/04/08 06:43:48;;;;;;;57.60;24.55;;;;;;;8.03;100.00;102383.19;4974806;28;20073;-66
2023/04/08 06:46:13;;;;;;;53.60;22.10;;;;;;;8.02;100.00;102384.00;4992825;28;20061;-66
2023/04/08 06:48:39;;;;;;;53.00;22.08;;;;;;;8.04;100.00;102387.59;4995621;28;20026;-67
2023/04/08 06:51:06;;;;;;;53.03;22.00;;;;;;;8.05;100.00;102391.06;4994283;28;20041;-66
2023/04/08 06:53:32;;;;;;;54.28;22.63;;;;;;;8.07;100.00;102390.38;4991934;28;20018;-66
2023/04/08 06:55:57;;;;;;;52.67;22.02;;;;;;;8.09;100.00;102390.44;4992727;28;20026;-67
2023/04/08 06:58:23;;;;;;;51.08;21.95;;;;;;;8.11;100.00;102394.94;4997186;28;20072;-67
2023/04/08 07:00:48;;;;;;;55.40;22.63;;;;;;;8.15;100.00;102396.00;4997302;28;20066;-67
2023/04/08 07:03:13;;;;;;;47.45;20.25;;;;;;;8.16;100.00;102398.69;4998342;28;20022;-66
2023/04/08 07:05:40;;;;;;;47.00;19.73;;;;;;;8.14;100.00;102401.97;4994620;28;20041;-66
2023/04/08 07:08:06;;;;;;;39.80;18.08;;;;;;;8.16;100.00;102406.47;4997111;28;20037;-66
2023/04/08 07:10:32;;;;;;;43.67;19.02;;;;;;;8.21;100.00;102408.44;4995774;28;20057;-67
2023/04/08 07:12:57;;;;;;;38.50;18.08;;;;;;;8.20;100.00;102412.75;4998931;28;20382;-67
2023/04/08 07:15:22;;;;;;;44.63;18.63;;;;;;;8.23;100.00;102412.03;4996872;28;20124;-66
2023/04/08 07:17:47;;;;;;;44.78;19.30;;;;;;;8.27;100.00;102419.19;4998543;28;20030;-66
2023/04/08 07:20:13;;;;;;;48.17;20.08;;;;;;;8.27;100.00;102414.00;4995034;28;20209;-67
2023/04/08 07:22:39;;;;;;;45.80;20.30;;;;;;;8.25;100.00;102420.81;4997758;28;20027;-66
2023/04/08 07:25:05;;;;;;;48.15;19.55;;;;;;;8.25;100.00;102426.00;4995585;28;20018;-67
2023/04/08 07:27:30;;;;;;;43.50;20.15;;;;;;;8.21;100.00;102424.91;4996555;28;20042;-67
2023/04/08 07:29:56;;;;;;;45.42;19.85;;;;;;;8.16;100.00;102435.03;4994159;28;20061;-67
2023/04/08 07:32:22;;;;;;;42.75;19.63;;;;;;;8.17;100.00;102438.53;4997757;28;20041;-66
2023/04/08 07:34:48;;;;;;;42.75;18.92;;;;;;;8.19;100.00;102440.41;4993518;28;20022;-67
2023/04/08 07:37:13;;;;;;;41.92;19.15;;;;;;;8.25;100.00;102438.97;4996666;28;20025;-66
2023/04/08 07:39:38;;;;;;;41.95;19.40;;;;;;;8.24;100.00;102439.78;4995690;28;20040;-66
2023/04/08 07:42:04;;;;;;;43.50;19.42;;;;;;;8.25;100.00;102438.97;4978123;28;20065;-66
2023/04/08 07:44:29;;;;;;;42.72;19.08;;;;;;;8.27;100.00;102443.47;4979372;28;20026;-66
2023/04/08 07:46:55;;;;;;;49.17;20.48;;;;;;;8.27;100.00;102439.97;4997479;28;20042;-67
2023/04/08 07:49:20;;;;;;;45.28;20.13;;;;;;;8.26;100.00;102439.06;4996077;28;20034;-67
2023/04/08 07:51:46;;;;;;;44.15;19.50;;;;;;;8.27;100.00;102450.34;4978881;28;20034;-67
2023/04/08 07:54:15;;;;;;;47.83;19.65;;;;;;;8.29;100.00;102438.38;4997652;28;20111;-67
2023/04/08 07:56:43;;;;;;;42.13;19.08;;;;;;;8.31;100.00;102449.72;4995589;28;20034;-67
2023/04/08 07:59:08;;;;;;;44.60;19.02;;;;;;;8.30;100.00;102448.84;4995855;28;20015;-67
2023/04/08 08:01:34;;;;;;;43.13;19.15;;;;;;;8.34;100.00;102447.31;4994940;28;20018;-67
2023/04/08 08:04:00;;;;;;;42.88;18.98;;;;;;;8.39;100.00;102455.38;4994844;28;20061;-67
2023/04/08 08:06:26;;;;;;;45.88;20.02;;;;;;;8.40;100.00;102460.69;4996865;28;20072;-66
2023/04/08 08:08:52;;;;;;;47.83;20.75;;;;;;;8.40;100.00;102464.94;4977750;28;20471;-67
2023/04/08 08:11:17;;;;;;;49.97;20.73;;;;;;;8.38;100.00;102461.38;4995301;28;20556;-66
2023/04/08 08:13:42;;;;;;;49.00;21.42;;;;;;;8.38;100.00;102470.06;4992720;28;20537;-66
2023/04/08 08:16:10;;;;;;;49.45;20.88;;;;;;;8.40;100.00;102470.16;4977212;28;20035;-67
2023/04/08 08:18:35;;;;;;;50.30;21.30;;;;;;;8.41;100.00;102470.22;4996849;28;20022;-67
2023/04/08 08:21:01;;;;;;;48.70;19.92;;;;;;;8.45;100.00;102472.25;4996617;28;20040;-66
2023/04/08 08:23:27;;;;;;;49.33;20.90;;;;;;;8.46;100.00;102476.66;4995909;28;20109;-66
2023/04/08 08:25:59;;;;;;;47.85;20.98;;;;;;;8.47;100.00;102478.44;4998289;28;20026;-67
2023/04/08 08:28:25;;;;;;;48.30;20.80;;;;;;;8.51;100.00;102474.31;4997557;28;20030;-66
2023/04/08 08:30:50;;;;;;;47.38;20.38;;;;;;;8.54;100.00;102482.28;4996053;28;20401;-67
2023/04/08 08:33:15;;;;;;;53.25;22.63;;;;;;;8.56;100.00;102492.75;4998364;28;20436;-67
2023/04/08 08:35:41;;;;;;;50.35;21.65;;;;;;;8.54;100.00;102477.06;4995490;28;20034;-67
2023/04/08 08:38:06;;;;;;;55.50;22.27;;;;;;;8.57;100.00;102484.16;4992041;28;20022;-66
2023/04/08 08:40:32;;;;;;;49.75;20.98;;;;;;;8.58;100.00;102492.03;4993174;28;20034;-67
2023/04/08 08:43:00;;;;;;;50.92;20.98;;;;;;;8.59;100.00;102490.31;4995971;28;20113;-67
2023/04/08 08:45:25;;;;;;;52.65;22.92;;;;;;;8.60;100.00;102492.13;4995437;28;20030;-67
2023/04/08 08:47:51;;;;;;;51.28;22.17;;;;;;;8.62;100.00;102491.41;4995081;28;20046;-67
2023/04/08 08:50:16;;;;;;;49.05;21.55;;;;;;;8.65;100.00;102501.09;4993438;28;20030;-66
2023/04/08 08:52:51;;;;;;;50.53;21.98;;;;;;;8.65;100.00;102501.09;4994586;28;20040;-66
2023/04/08 08:55:21;;;;;;;52.78;23.17;;;;;;;8.58;100.00;102501.56;4996394;28;20479;-66
2023/04/08 08:57:50;;;;;;;51.45;22.52;;;;;;;8.57;100.00;102497.16;4977820;28;20061;-66
2023/04/08 09:00:16;;;;;;;50.03;21.92;;;;;;;8.58;100.00;102497.25;4994443;28;20056;-66
2023/04/08 09:02:41;;;;;;;50.33;22.65;;;;;;;8.64;100.00;102500.19;4995685;28;20036;-66
2023/04/08 09:05:07;;;;;;;53.53;23.80;;;;;;;8.66;100.00;102505.47;4977765;28;20029;-66
2023/04/08 09:07:39;;;;;;;54.85;22.83;;;;;;;8.64;100.00;102504.50;4992894;28;20493;-66
2023/04/08 09:10:05;;;;;;;52.75;23.35;;;;;;;8.64;100.00;102507.09;4994912;28;20034;-67
2023/04/08 09:12:30;;;;;;;54.42;23.20;;;;;;;8.67;100.00;102505.56;4994917;28;20033;-67
2023/04/08 09:15:09;;;;;;;51.58;22.27;;;;;;;8.66;100.00;102516.78;4996232;28;20030;-66
2023/04/08 09:17:38;;;;;;;49.97;22.17;;;;;;;8.64;100.00;102514.91;4977678;28;20481;-66
2023/04/08 09:20:10;;;;;;;55.20;22.90;;;;;;;8.64;100.00;102517.50;4989450;28;20397;-66
2023/04/08 09:23:04;;;;;;;51.40;23.30;;;;;;;8.67;100.00;102521.16;4995838;28;20030;-66
2023/04/08 09:25:32;;;;;;;49.90;22.40;;;;;;;8.64;100.00;102520.97;4975143;28;20049;-66
2023/04/08 09:27:57;;;;;;;50.58;21.75;;;;;;;8.64;100.00;102520.09;4995588;28;20026;-66
2023/04/08 09:30:24;;;;;;;43.67;20.55;;;;;;;8.67;100.00;102523.75;4996274;28;20045;-67
2023/04/08 09:32:52;;;;;;;50.10;22.67;;;;;;;8.76;100.00;102523.41;4978541;28;20046;-66
2023/04/08 09:35:19;;;;;;;47.70;22.60;;;;;;;8.80;100.00;102530.56;5217709;23;20798;-66
2023/04/08 09:37:45;;;;;;;43.30;21.83;;;;;;;8.81;100.00;102524.56;4982472;28;20095;-66
2023/04/08 09:40:11;;;;;;;44.72;21.50;;;;;;;8.90;100.00;102526.78;4998280;28;20109;-66
2023/04/08 09:42:40;;;;;;;43.90;21.85;;;;;;;8.97;100.00;102533.25;4998109;28;20029;-65
2023/04/08 09:45:06;;;;;;;43.97;21.02;;;;;;;8.99;100.00;102534.22;4998992;28;20022;-65
2023/04/08 09:47:41;;;;;;;43.85;22.33;;;;;;;9.00;100.00;102531.72;4997403;28;20113;-65
2023/04/08 09:50:08;;;;;;;43.15;21.63;;;;;;;9.08;100.00;102533.84;4997856;28;20034;-66
2023/04/08 09:52:42;;;;;;;47.60;22.45;;;;;;;9.14;100.00;102540.31;4997553;28;20037;-66
2023/04/08 09:55:10;;;;;;;44.00;21.20;;;;;;;9.18;100.00;102529.28;4998176;28;20022;-66
2023/04/08 09:57:57;;;;;;;47.97;22.90;;;;;;;9.28;100.00;102540.19;4996867;28;20083;-65
2023/04/08 10:00:39;;;;;;;46.20;22.42;;;;;;;9.34;100.00;102548.34;4979881;28;20041;-65
2023/04/08 10:03:28;;;;;;;45.33;21.98;;;;;;;9.40;100.00;102540.88;4977368;28;20036;-66
2023/04/08 10:05:55;;;;;;;44.70;21.80;;;;;;;9.40;99.63;102533.97;4997974;28;20529;-65
2023/04/08 10:08:22;;;;;;;43.55;22.08;;;;;;;9.39;99.57;102537.38;4997473;28;20033;-65
2023/04/08 10:10:48;;;;;;;42.97;22.33;;;;;;;9.46;100.00;102541.22;4996699;28;20038;-65
2023/04/08 10:13:13;;;;;;;48.63;24.08;;;;;;;9.55;100.00;102546.91;4996731;28;20481;-66
2023/04/08 10:15:42;;;;;;;45.28;23.50;;;;;;;9.62;100.00;102544.69;4997024;28;20049;-66
2023/04/08 10:18:10;;;;;;;45.55;24.05;;;;;;;9.69;100.00;102547.69;4979007;28;20033;-65
2023/04/08 10:20:35;;;;;;;44.00;22.73;;;;;;;9.73;99.03;102541.84;4997840;28;20026;-65
2023/04/08 10:23:12;;;;;;;46.10;23.33;;;;;;;9.71;97.69;102540.84;4997730;28;20041;-66
2023/04/08 10:25:41;;;;;;;49.92;23.33;;;;;;;9.69;97.08;102538.97;4998015;28;20073;-65
2023/04/08 10:28:09;;;;;;;45.10;23.40;;;;;;;9.70;99.25;102539.09;4997621;28;20040;-65
2023/04/08 10:30:50;;;;;;;49.75;24.88;;;;;;;9.74;98.41;102538.41;4997165;28;20113;-65
2023/04/08 10:33:20;;;;;;;46.63;24.10;;;;;;;9.74;96.94;102540.13;4997543;28;20025;-65
2023/04/08 10:36:11;;;;;;;45.67;23.45;;;;;;;9.81;98.14;102534.44;5000253;28;20128;-65
2023/04/08 10:38:37;;;;;;;47.60;23.83;;;;;;;10.05;96.91;102527.06;4980729;28;20062;-66
2023/04/08 10:41:03;;;;;;;45.42;23.75;;;;;;;10.17;97.13;102537.22;5003566;28;22022;-66
2023/04/08 10:43:35;;;;;;;47.90;24.83;;;;;;;10.19;96.24;102527.75;5005837;28;20120;-65
2023/04/08 10:46:03;;;;;;;45.13;24.02;;;;;;;10.21;96.90;102533.06;5005543;28;20442;-65
2023/04/08 10:48:29;;;;;;;46.08;25.13;;;;;;;10.25;96.77;102527.19;5004636;28;20022;-66
2023/04/08 10:51:05;;;;;;;48.22;24.05;;;;;;;10.23;96.68;102521.91;5003619;28;20374;-65
2023/04/08 10:53:32;;;;;;;46.83;25.63;;;;;;;10.13;92.63;102524.84;5005957;28;20040;-65
2023/04/08 10:56:09;;;;;;;45.67;23.08;;;;;;;10.20;95.00;102515.66;5003606;28;20021;-65
2023/04/08 10:58:35;;;;;;;47.55;25.00;;;;;;;10.38;95.09;102510.53;5003803;28;20120;-66
2023/04/08 11:01:08;;;;;;;49.92;26.50;;;;;;;10.49;96.14;102506.75;5004325;28;20457;-65
2023/04/08 11:03:35;;;;;;;46.60;24.88;;;;;;;10.50;95.94;102503.34;5005763;28;20109;-65
2023/04/08 11:06:01;;;;;;;47.72;24.90;;;;;;;10.50;93.24;102503.34;5002148;28;20129;-66
2023/04/08 11:08:33;;;;;;;46.95;25.85;;;;;;;10.87;96.11;102512.97;5004410;28;20033;-66
2023/04/08 11:11:00;;;;;;;48.67;25.13;;;;;;;11.37;98.05;102513.66;5005043;28;20396;-65
2023/04/08 11:13:26;;;;;;;46.25;25.67;;;;;;;11.62;93.88;102517.41;5004136;28;20033;-65
2023/04/08 11:15:52;;;;;;;46.78;25.00;;;;;;;11.68;89.38;102517.69;5004958;28;20028;-66
2023/04/08 11:18:17;;;;;;;48.45;26.48;;;;;;;11.70;89.97;102516.03;5004469;28;20030;-66